Tillamook, OR

10:06 PM PST on December 17, 2014 (GMT -0800)
Greentree Ridge | Change Station
CLOSE
Current Station
Personal Weather Station
Location: Tillamook, OR
Elevation: 197 ft
Nearby Weather Stations
Active Advisory: Special Statement

Elev 197 ft 45.45 °N, 123.78 °W | Updated 34 seconds ago

Overcast
Overcast
45.1 °F
Feels Like 45 °F
N
0.0
Wind Variable Wind from SE
Gusts 0.0 mph

Today
High -- | Low -- °F
--% Chance of Precip.
Yesterday
High -- | Low -- °F
Precip. -- in
7:49 AM 4:32 PM
Waning Crescent, 17% visible
Pressure 29.96 in
Visibility 2.5 miles
Clouds Scattered Clouds 5000 ft
Windchill 45 °F
Dew Point 45 °F
Humidity 98%
Rainfall 0.29 in
Snow Depth Not available.
UV 0.0 out of 12
Pollen .40 out of 12
Air Quality Not available.
Flu Activity Not available.
METAR KTMK 180555Z AUTO 00000KT 2 1/2SM BR SCT050 06/06 A2996 RMK AO2

More Conditions Fewer Conditions

Pressure 29.96 in
Visibility 2.5 miles
Clouds Scattered Clouds 5000 ft
Windchill 45 °F
Dew Point 45 °F
Humidity 98%
Rainfall 0.29 in
Snow Depth Not available.
UV 0.0 out of 12
Pollen .40 out of 12
Air Quality Not available.
Flu Activity Not available.
METAR KTMK 180555Z AUTO 00000KT 2 1/2SM BR SCT050 06/06 A2996 RMK AO2

More Conditions Fewer Conditions

10-Day Weather Forecast

Almanac

Astronomy

Dec. 17, 2014 Rise Set
Actual Time
Civil Twilight
Nautical Twilight
Astronomical Twilight
Moon
Length of Visible Light
Length of Day
Tomorrow will be .
, % of the Moon is Illuminated

Today's Extremes

State Highs State Lows

Community

WunderPhotos

Upload Photos

1,778,896 photos uploaded!

WunderBlogs® & News

Nearby

Air Quality

  Air Quality AQ Index Pollutant
Not available.

Snow Depth

Station Depth Elevation

Earthquake Activity

City Distance Mag. Time & Date
Minimum magnitude displayed is 2.5.

Coastal Water Temperatures

Place Temperature

Nearby Weather Stations